sensor_id;sensor_type;location;lat;lon;timestamp;pressure;altitude;pressure_sealevel;temperature;humidity
7918;BME280;4004;42.624;23.386;2023-01-16T00:01:21;94037.59;;;1.20;100.00
7918;BME280;4004;42.624;23.386;2023-01-16T00:03:48;94033.59;;;1.23;100.00
7918;BME280;4004;42.624;23.386;2023-01-16T00:06:15;94024.53;;;1.24;100.00
7918;BME280;4004;42.624;23.386;2023-01-16T00:08:41;94027.50;;;1.22;100.00
7918;BME280;4004;42.624;23.386;2023-01-16T00:11:10;94029.34;;;1.22;100.00
7918;BME280;4004;42.624;23.386;2023-01-16T00:13:37;94031.41;;;1.25;100.00
7918;BME280;4004;42.624;23.386;2023-01-16T00:16:05;94033.94;;;1.30;100.00
7918;BME280;4004;42.624;23.386;2023-01-16T00:18:32;94033.16;;;1.30;100.00
7918;BME280;4004;42.624;23.386;2023-01-16T00:20:59;94029.44;;;1.31;100.00
7918;BME280;4004;42.624;23.386;2023-01-16T00:23:26;94038.97;;;1.32;100.00
7918;BME280;4004;42.624;23.386;2023-01-16T00:25:53;94035.53;;;1.31;100.00
7918;BME280;4004;42.624;23.386;2023-01-16T00:28:21;94026.69;;;1.36;100.00
7918;BME280;4004;42.624;23.386;2023-01-16T00:30:48;94016.88;;;1.36;100.00
7918;BME280;4004;42.624;23.386;2023-01-16T00:33:15;94020.78;;;1.39;100.00
7918;BME280;4004;42.624;23.386;2023-01-16T00:35:43;94010.97;;;1.39;100.00
7918;BME280;4004;42.624;23.386;2023-01-16T00:38:10;94015.13;;;1.32;100.00
7918;BME280;4004;42.624;23.386;2023-01-16T00:40:36;94004.94;;;1.25;100.00
7918;BME280;4004;42.624;23.386;2023-01-16T00:43:03;94003.56;;;1.28;100.00
7918;BME280;4004;42.624;23.386;2023-01-16T00:45:31;93998.38;;;1.22;100.00
7918;BME280;4004;42.624;23.386;2023-01-16T00:47:58;93991.34;;;1.18;100.00
7918;BME280;4004;42.624;23.386;2023-01-16T00:50:25;93982.09;;;1.15;100.00
7918;BME280;4004;42.624;23.386;2023-01-16T00:52:52;93984.09;;;1.10;100.00
7918;BME280;4004;42.624;23.386;2023-01-16T00:55:18;93982.81;;;1.07;100.00
7918;BME280;4004;42.624;23.386;2023-01-16T00:57:45;93983.59;;;1.08;100.00
7918;BME280;4004;42.624;23.386;2023-01-16T01:00:12;93976.06;;;1.01;100.00
7918;BME280;4004;42.624;23.386;2023-01-16T01:02:40;93982.81;;;1.07;100.00
7918;BME280;4004;42.624;23.386;2023-01-16T01:05:08;93977.53;;;0.93;100.00
7918;BME280;4004;42.624;23.386;2023-01-16T01:07:34;93980.69;;;0.95;100.00
7918;BME280;4004;42.624;23.386;2023-01-16T01:10:01;93987.91;;;1.03;100.00
7918;BME280;4004;42.624;23.386;2023-01-16T01:12:29;93981.97;;;0.98;100.00
7918;BME280;4004;42.624;23.386;2023-01-16T01:14:55;93986.38;;;1.02;100.00
7918;BME280;4004;42.624;23.386;2023-01-16T01:17:22;93982.69;;;1.12;100.00
7918;BME280;4004;42.624;23.386;2023-01-16T01:19:50;93992.31;;;1.08;100.00
7918;BME280;4004;42.624;23.386;2023-01-16T01:22:17;93981.16;;;0.97;100.00
7918;BME280;4004;42.624;23.386;2023-01-16T01:24:47;93976.72;;;1.07;100.00
7918;BME280;4004;42.624;23.386;2023-01-16T01:27:15;93994.97;;;1.08;100.00
7918;BME280;4004;42.624;23.386;2023-01-16T01:29:42;93987.03;;;1.08;100.00
7918;BME280;4004;42.624;23.386;2023-01-16T01:32:08;93983.00;;;1.11;100.00
7918;BME280;4004;42.624;23.386;2023-01-16T01:34:35;93982.22;;;1.10;100.00
7918;BME280;4004;42.624;23.386;2023-01-16T01:37:05;93971.91;;;1.22;100.00
7918;BME280;4004;42.624;23.386;2023-01-16T01:39:32;93969.75;;;1.24;100.00
7918;BME280;4004;42.624;23.386;2023-01-16T01:41:59;93963.94;;;1.22;100.00
7918;BME280;4004;42.624;23.386;2023-01-16T01:44:52;93956.91;;;1.18;100.00
7918;BME280;4004;42.624;23.386;2023-01-16T01:47:21;93957.50;;;1.15;100.00
7918;BME280;4004;42.624;23.386;2023-01-16T01:49:50;93956.72;;;1.14;100.00
7918;BME280;4004;42.624;23.386;2023-01-16T01:52:20;93948.91;;;1.09;100.00
7918;BME280;4004;42.624;23.386;2023-01-16T01:54:50;93944.09;;;1.11;100.00
7918;BME280;4004;42.624;23.386;2023-01-16T01:57:22;93937.22;;;1.10;100.00
7918;BME280;4004;42.624;23.386;2023-01-16T01:59:56;93938.59;;;1.08;100.00
7918;BME280;4004;42.624;23.386;2023-01-16T02:02:26;93945.19;;;0.96;100.00
7918;BME280;4004;42.624;23.386;2023-01-16T02:04:56;93936.88;;;0.89;100.00
7918;BME280;4004;42.624;23.386;2023-01-16T02:07:26;93929.13;;;0.93;100.00
7918;BME280;4004;42.624;23.386;2023-01-16T02:09:59;93928.38;;;0.78;100.00
7918;BME280;4004;42.624;23.386;2023-01-16T02:12:28;93925.13;;;0.81;100.00
7918;BME280;4004;42.624;23.386;2023-01-16T02:14:55;93924.97;;;0.78;100.00
7918;BME280;4004;42.624;23.386;2023-01-16T02:17:23;93924.16;;;0.77;100.00
7918;BME280;4004;42.624;23.386;2023-01-16T02:20:15;93924.97;;;0.78;100.00
7918;BME280;4004;42.624;23.386;2023-01-16T02:26:11;93917.91;;;0.73;100.00
7918;BME280;4004;42.624;23.386;2023-01-16T02:31:58;93910.34;;;0.80;100.00
7918;BME280;4004;42.624;23.386;2023-01-16T02:34:41;93910.34;;;0.80;100.00
7918;BME280;4004;42.624;23.386;2023-01-16T02:37:21;93904.66;;;0.87;100.00
7918;BME280;4004;42.624;23.386;2023-01-16T02:39:57;93898.38;;;0.83;100.00
7918;BME280;4004;42.624;23.386;2023-01-16T02:42:33;93893.31;;;0.73;100.00
7918;BME280;4004;42.624;23.386;2023-01-16T02:45:04;93906.44;;;0.78;100.00
7918;BME280;4004;42.624;23.386;2023-01-16T02:47:41;93899.56;;;0.77;100.00
7918;BME280;4004;42.624;23.386;2023-01-16T02:50:15;93898.66;;;0.81;100.00
7918;BME280;4004;42.624;23.386;2023-01-16T02:52:52;93903.97;;;0.81;100.00
7918;BME280;4004;42.624;23.386;2023-01-16T02:55:26;93900.75;;;0.85;100.00
7918;BME280;4004;42.624;23.386;2023-01-16T02:57:56;93904.22;;;0.94;100.00
7918;BME280;4004;42.624;23.386;2023-01-16T03:00:24;93892.84;;;0.93;100.00
7918;BME280;4004;42.624;23.386;2023-01-16T03:02:53;93892.25;;;0.96;100.00
7918;BME280;4004;42.624;23.386;2023-01-16T03:05:21;93885.81;;;0.89;100.00
7918;BME280;4004;42.624;23.386;2023-01-16T03:08:15;93881.59;;;0.88;100.00
7918;BME280;4004;42.624;23.386;2023-01-16T03:11:05;93875.53;;;0.87;100.00
7918;BME280;4004;42.624;23.386;2023-01-16T03:13:51;93878.47;;;0.86;100.00
7918;BME280;4004;42.624;23.386;2023-01-16T03:16:28;93880.63;;;0.83;100.00
7918;BME280;4004;42.624;23.386;2023-01-16T03:19:07;93869.84;;;0.80;100.00
7918;BME280;4004;42.624;23.386;2023-01-16T03:21:41;93874.38;;;0.79;100.00
7918;BME280;4004;42.624;23.386;2023-01-16T03:24:23;93864.28;;;0.81;100.00
7918;BME280;4004;42.624;23.386;2023-01-16T03:26:57;93861.03;;;0.85;100.00
7918;BME280;4004;42.624;23.386;2023-01-16T03:29:29;93858.41;;;0.85;100.00
7918;BME280;4004;42.624;23.386;2023-01-16T03:32:05;93856.81;;;0.83;100.00
7918;BME280;4004;42.624;23.386;2023-01-16T03:34:39;93850.88;;;0.78;100.00
7918;BME280;4004;42.624;23.386;2023-01-16T03:37:11;93859.16;;;0.85;100.00
7918;BME280;4004;42.624;23.386;2023-01-16T03:39:42;93845.63;;;0.87;100.00
7918;BME280;4004;42.624;23.386;2023-01-16T03:42:15;93846.84;;;0.80;100.00
7918;BME280;4004;42.624;23.386;2023-01-16T03:44:48;93831.53;;;0.77;100.00
7918;BME280;4004;42.624;23.386;2023-01-16T03:47:20;93817.59;;;0.86;100.00
7918;BME280;4004;42.624;23.386;2023-01-16T03:49:55;93821.03;;;0.86;100.00
7918;BME280;4004;42.624;23.386;2023-01-16T03:52:30;93819.63;;;0.89;100.00
7918;BME280;4004;42.624;23.386;2023-01-16T03:55:03;93828.66;;;0.88;100.00
7918;BME280;4004;42.624;23.386;2023-01-16T03:57:37;93823.31;;;0.79;100.00
7918;BME280;4004;42.624;23.386;2023-01-16T04:00:07;93818.03;;;0.79;100.00
7918;BME280;4004;42.624;23.386;2023-01-16T04:02:41;93808.16;;;0.71;100.00
7918;BME280;4004;42.624;23.386;2023-01-16T04:05:16;93804.59;;;0.75;100.00
7918;BME280;4004;42.624;23.386;2023-01-16T04:07:47;93802.38;;;0.69;100.00
7918;BME280;4004;42.624;23.386;2023-01-16T04:10:20;93804.38;;;0.63;100.00
7918;BME280;4004;42.624;23.386;2023-01-16T04:12:50;93807.38;;;0.70;100.00
7918;BME280;4004;42.624;23.386;2023-01-16T04:15:19;93816.09;;;0.71;100.00
7918;BME280;4004;42.624;23.386;2023-01-16T04:17:46;93812.66;;;0.70;100.00
7918;BME280;4004;42.624;23.386;2023-01-16T04:20:14;93808.81;;;0.76;100.00
7918;BME280;4004;42.624;23.386;2023-01-16T04:22:46;93806.66;;;0.78;100.00
7918;BME280;4004;42.624;23.386;2023-01-16T04:25:13;93809.78;;;0.80;100.00
7918;BME280;4004;42.624;23.386;2023-01-16T04:27:40;93799.78;;;0.77;100.00
7918;BME280;4004;42.624;23.386;2023-01-16T04:30:08;93809.31;;;0.78;100.00
7918;BME280;4004;42.624;23.386;2023-01-16T04:32:35;93802.91;;;0.79;100.00
7918;BME280;4004;42.624;23.386;2023-01-16T04:35:02;93805.47;;;0.85;100.00
7918;BME280;4004;42.624;23.386;2023-01-16T04:37:30;93796.63;;;0.89;100.00
7918;BME280;4004;42.624;23.386;2023-01-16T04:39:59;93797.81;;;0.83;100.00
7918;BME280;4004;42.624;23.386;2023-01-16T04:42:26;93791.13;;;0.86;100.00
7918;BME280;4004;42.624;23.386;2023-01-16T04:44:53;93794.69;;;0.81;100.00
7918;BME280;4004;42.624;23.386;2023-01-16T04:47:20;93785.50;;;0.78;100.00
7918;BME280;4004;42.624;23.386;2023-01-16T04:49:46;93798.41;;;0.80;100.00
7918;BME280;4004;42.624;23.386;2023-01-16T04:52:13;93794.50;;;0.77;100.00
7918;BME280;4004;42.624;23.386;2023-01-16T04:54:42;93796.50;;;0.72;100.00
7918;BME280;4004;42.624;23.386;2023-01-16T04:57:09;93784.72;;;0.78;100.00
7918;BME280;4004;42.624;23.386;2023-01-16T04:59:35;93788.25;;;0.73;100.00
7918;BME280;4004;42.624;23.386;2023-01-16T05:02:02;93794.91;;;0.71;100.00
7918;BME280;4004;42.624;23.386;2023-01-16T05:04:29;93799.56;;;0.65;100.00
7918;BME280;4004;42.624;23.386;2023-01-16T05:06:56;93783.38;;;0.67;100.00
7918;BME280;4004;42.624;23.386;2023-01-16T05:09:23;93785.56;;;0.65;100.00
7918;BME280;4004;42.624;23.386;2023-01-16T05:11:51;93789.09;;;0.60;100.00
7918;BME280;4004;42.624;23.386;2023-01-16T05:14:18;93785.50;;;0.56;100.00
7918;BME280;4004;42.624;23.386;2023-01-16T05:16:45;93787.19;;;0.52;100.00
7918;BME280;4004;42.624;23.386;2023-01-16T05:19:11;93776.75;;;0.55;100.00
7918;BME280;4004;42.624;23.386;2023-01-16T05:21:38;93772.06;;;0.52;100.00
7918;BME280;4004;42.624;23.386;2023-01-16T05:24:05;93770.94;;;0.45;100.00
7918;BME280;4004;42.624;23.386;2023-01-16T05:26:32;93765.81;;;0.48;100.00
7918;BME280;4004;42.624;23.386;2023-01-16T05:29:00;93757.59;;;0.50;100.00
7918;BME280;4004;42.624;23.386;2023-01-16T05:31:27;93759.16;;;0.51;100.00
7918;BME280;4004;42.624;23.386;2023-01-16T05:33:54;93760.38;;;0.45;100.00
7918;BME280;4004;42.624;23.386;2023-01-16T05:36:20;93757.25;;;0.43;100.00
7918;BME280;4004;42.624;23.386;2023-01-16T05:38:47;93749.19;;;0.48;100.00
7918;BME280;4004;42.624;23.386;2023-01-16T05:41:16;93751.28;;;0.59;100.00
7918;BME280;4004;42.624;23.386;2023-01-16T05:43:43;93746.94;;;0.64;100.00
7918;BME280;4004;42.624;23.386;2023-01-16T05:46:11;93742.91;;;0.66;100.00
7918;BME280;4004;42.624;23.386;2023-01-16T05:48:37;93735.66;;;0.72;100.00
7918;BME280;4004;42.624;23.386;2023-01-16T05:51:05;93749.03;;;0.75;100.00
7918;BME280;4004;42.624;23.386;2023-01-16T05:53:32;93746.78;;;0.82;100.00
7918;BME280;4004;42.624;23.386;2023-01-16T05:55:59;93747.69;;;0.78;100.00
7918;BME280;4004;42.624;23.386;2023-01-16T05:58:32;93758.25;;;0.78;100.00
7918;BME280;4004;42.624;23.386;2023-01-16T06:00:58;93752.34;;;0.81;100.00
7918;BME280;4004;42.624;23.386;2023-01-16T06:03:26;93747.06;;;0.81;100.00
7918;BME280;4004;42.624;23.386;2023-01-16T06:05:53;93753.00;;;0.87;100.00
7918;BME280;4004;42.624;23.386;2023-01-16T06:08:20;93741.97;;;0.93;100.00
7918;BME280;4004;42.624;23.386;2023-01-16T06:10:47;93746.25;;;1.03;100.00
7918;BME280;4004;42.624;23.386;2023-01-16T06:13:15;93743.59;;;1.03;100.00
7918;BME280;4004;42.624;23.386;2023-01-16T06:15:42;93737.69;;;1.06;100.00
7918;BME280;4004;42.624;23.386;2023-01-16T06:18:09;93738.03;;;1.13;100.00
7918;BME280;4004;42.624;23.386;2023-01-16T06:20:37;93726.84;;;1.16;100.00
7918;BME280;4004;42.624;23.386;2023-01-16T06:23:04;93732.19;;;1.25;100.00
7918;BME280;4004;42.624;23.386;2023-01-16T06:25:30;93730.78;;;1.28;100.00
7918;BME280;4004;42.624;23.386;2023-01-16T06:27:57;93738.16;;;1.39;100.00
7918;BME280;4004;42.624;23.386;2023-01-16T06:30:24;93744.56;;;1.47;100.00
7918;BME280;4004;42.624;23.386;2023-01-16T06:32:51;93743.19;;;1.58;100.00
7918;BME280;4004;42.624;23.386;2023-01-16T06:35:18;93739.66;;;1.72;100.00
7918;BME280;4004;42.624;23.386;2023-01-16T06:37:46;93733.91;;;1.87;100.00
7918;BME280;4004;42.624;23.386;2023-01-16T06:40:13;93751.41;;;2.05;100.00
7918;BME280;4004;42.624;23.386;2023-01-16T06:42:39;93759.53;;;2.18;100.00
7918;BME280;4004;42.624;23.386;2023-01-16T06:45:07;93760.81;;;2.29;100.00
7918;BME280;4004;42.624;23.386;2023-01-16T06:47:34;93764.53;;;2.45;100.00
7918;BME280;4004;42.624;23.386;2023-01-16T06:50:00;93761.72;;;2.68;100.00
7918;BME280;4004;42.624;23.386;2023-01-16T06:52:27;93758.41;;;2.88;100.00
7918;BME280;4004;42.624;23.386;2023-01-16T06:54:55;93751.94;;;3.16;100.00
7918;BME280;4004;42.624;23.386;2023-01-16T06:57:22;93736.56;;;3.39;100.00
7918;BME280;4004;42.624;23.386;2023-01-16T06:59:49;93725.19;;;3.29;100.00
7918;BME280;4004;42.624;23.386;2023-01-16T07:02:15;93739.31;;;3.13;100.00
7918;BME280;4004;42.624;23.386;2023-01-16T07:04:42;93751.44;;;3.22;100.00
7918;BME280;4004;42.624;23.386;2023-01-16T07:07:09;93754.69;;;3.45;100.00
7918;BME280;4004;42.624;23.386;2023-01-16T07:09:36;93753.19;;;3.65;100.00
7918;BME280;4004;42.624;23.386;2023-01-16T07:12:04;93753.38;;;3.90;100.00
7918;BME280;4004;42.624;23.386;2023-01-16T07:14:31;93745.81;;;4.01;100.00
7918;BME280;4004;42.624;23.386;2023-01-16T07:17:15;93745.97;;;4.25;100.00
7918;BME280;4004;42.624;23.386;2023-01-16T07:20:00;93736.16;;;4.38;100.00
7918;BME280;4004;42.624;23.386;2023-01-16T07:22:44;93730.97;;;4.63;100.00
7918;BME280;4004;42.624;23.386;2023-01-16T07:25:12;93735.75;;;4.69;100.00
7918;BME280;4004;42.624;23.386;2023-01-16T07:27:42;93740.28;;;4.69;100.00
7918;BME280;4004;42.624;23.386;2023-01-16T07:30:10;93723.00;;;4.75;100.00
7918;BME280;4004;42.624;23.386;2023-01-16T07:32:38;93724.28;;;4.56;100.00
7918;BME280;4004;42.624;23.386;2023-01-16T07:35:06;93729.28;;;4.37;100.00
7918;BME280;4004;42.624;23.386;2023-01-16T07:37:33;93731.09;;;4.45;100.00
7918;BME280;4004;42.624;23.386;2023-01-16T07:40:00;93733.34;;;4.55;100.00
7918;BME280;4004;42.624;23.386;2023-01-16T07:42:27;93730.59;;;4.64;100.00
7918;BME280;4004;42.624;23.386;2023-01-16T07:44:55;93713.53;;;4.65;100.00
7918;BME280;4004;42.624;23.386;2023-01-16T07:47:22;93715.63;;;4.60;100.00
7918;BME280;4004;42.624;23.386;2023-01-16T07:49:49;93713.03;;;4.51;100.00
7918;BME280;4004;42.624;23.386;2023-01-16T07:52:15;93719.22;;;4.43;100.00
7918;BME280;4004;42.624;23.386;2023-01-16T07:54:43;93713.00;;;4.39;100.00
7918;BME280;4004;42.624;23.386;2023-01-16T07:57:10;93710.00;;;4.19;100.00
7918;BME280;4004;42.624;23.386;2023-01-16T07:59:36;93695.28;;;3.71;100.00
7918;BME280;4004;42.624;23.386;2023-01-16T08:02:05;93692.13;;;3.48;100.00
7918;BME280;4004;42.624;23.386;2023-01-16T08:04:32;93700.38;;;3.25;100.00
7918;BME280;4004;42.624;23.386;2023-01-16T08:06:58;93693.84;;;3.14;100.00
7918;BME280;4004;42.624;23.386;2023-01-16T08:09:25;93691.34;;;3.09;100.00
7918;BME280;4004;42.624;23.386;2023-01-16T08:11:52;93690.72;;;3.12;100.00
7918;BME280;4004;42.624;23.386;2023-01-16T08:14:19;93686.97;;;3.13;100.00
7918;BME280;4004;42.624;23.386;2023-01-16T08:16:45;93684.41;;;3.25;100.00
7918;BME280;4004;42.624;23.386;2023-01-16T08:19:13;93688.34;;;3.19;100.00
7918;BME280;4004;42.624;23.386;2023-01-16T08:21:40;93686.81;;;3.18;100.00
7918;BME280;4004;42.624;23.386;2023-01-16T08:24:07;93690.94;;;3.37;100.00
7918;BME280;4004;42.624;23.386;2023-01-16T08:26:34;93707.44;;;3.51;100.00
7918;BME280;4004;42.624;23.386;2023-01-16T08:29:01;93702.19;;;3.72;100.00
7918;BME280;4004;42.624;23.386;2023-01-16T08:31:28;93697.22;;;3.91;100.00
7918;BME280;4004;42.624;23.386;2023-01-16T08:33:55;93691.19;;;4.03;100.00
7918;BME280;4004;42.624;23.386;2023-01-16T08:36:23;93701.34;;;4.22;100.00
7918;BME280;4004;42.624;23.386;2023-01-16T08:38:51;93692.16;;;4.41;100.00
7918;BME280;4004;42.624;23.386;2023-01-16T08:41:18;93676.34;;;4.56;100.00
7918;BME280;4004;42.624;23.386;2023-01-16T08:44:02;93675.19;;;4.78;100.00
7918;BME280;4004;42.624;23.386;2023-01-16T08:46:53;93670.69;;;4.91;100.00
7918;BME280;4004;42.624;23.386;2023-01-16T08:49:39;93667.34;;;5.07;100.00
7918;BME280;4004;42.624;23.386;2023-01-16T08:52:25;93664.50;;;5.12;100.00
7918;BME280;4004;42.624;23.386;2023-01-16T08:54:52;93668.06;;;5.16;100.00
7918;BME280;4004;42.624;23.386;2023-01-16T08:57:19;93660.94;;;5.20;100.00
7918;BME280;4004;42.624;23.386;2023-01-16T08:59:46;93661.38;;;5.10;100.00
7918;BME280;4004;42.624;23.386;2023-01-16T09:02:12;93666.94;;;5.17;100.00
7918;BME280;4004;42.624;23.386;2023-01-16T09:04:41;93666.06;;;5.25;100.00
7918;BME280;4004;42.624;23.386;2023-01-16T09:07:09;93658.53;;;5.27;100.00
7918;BME280;4004;42.624;23.386;2023-01-16T09:09:37;93654.50;;;5.21;100.00
7918;BME280;4004;42.624;23.386;2023-01-16T09:12:07;93647.41;;;5.25;100.00
7918;BME280;4004;42.624;23.386;2023-01-16T09:14:52;93641.19;;;5.21;100.00
7918;BME280;4004;42.624;23.386;2023-01-16T09:17:20;93634.28;;;5.20;100.00
7918;BME280;4004;42.624;23.386;2023-01-16T09:19:47;93639.06;;;5.27;100.00
7918;BME280;4004;42.624;23.386;2023-01-16T09:22:14;93634.97;;;5.29;100.00
7918;BME280;4004;42.624;23.386;2023-01-16T09:24:42;93635.66;;;5.38;100.00
7918;BME280;4004;42.624;23.386;2023-01-16T09:27:10;93631.63;;;5.45;100.00
7918;BME280;4004;42.624;23.386;2023-01-16T09:29:38;93613.84;;;5.49;100.00
7918;BME280;4004;42.624;23.386;2023-01-16T09:32:05;93621.41;;;5.47;100.00
7918;BME280;4004;42.624;23.386;2023-01-16T09:34:34;93618.41;;;5.48;100.00
7918;BME280;4004;42.624;23.386;2023-01-16T09:37:01;93608.97;;;5.51;100.00
7918;BME280;4004;42.624;23.386;2023-01-16T09:39:28;93604.28;;;5.60;100.00
7918;BME280;4004;42.624;23.386;2023-01-16T09:42:13;93600.75;;;5.56;100.00
7918;BME280;4004;42.624;23.386;2023-01-16T09:45:07;93609.06;;;5.42;100.00
7918;BME280;4004;42.624;23.386;2023-01-16T09:47:38;93603.41;;;5.44;100.00
7918;BME280;4004;42.624;23.386;2023-01-16T09:50:12;93595.19;;;5.49;100.00
7918;BME280;4004;42.624;23.386;2023-01-16T09:52:44;93594.75;;;5.59;100.00
7918;BME280;4004;42.624;23.386;2023-01-16T09:55:34;93583.84;;;5.64;100.00
7918;BME280;4004;42.624;23.386;2023-01-16T09:58:23;93585.59;;;5.72;100.00
7918;BME280;4004;42.624;23.386;2023-01-16T10:01:02;93565.22;;;5.80;100.00
7918;BME280;4004;42.624;23.386;2023-01-16T10:03:29;93570.44;;;5.89;99.65
7918;BME280;4004;42.624;23.386;2023-01-16T10:06:01;93568.44;;;5.98;99.50
7918;BME280;4004;42.624;23.386;2023-01-16T10:08:31;93576.22;;;6.03;99.13
7918;BME280;4004;42.624;23.386;2023-01-16T10:11:06;93579.41;;;6.09;98.09
7918;BME280;4004;42.624;23.386;2023-01-16T10:16:51;93554.34;;;6.13;97.13
7918;BME280;4004;42.624;23.386;2023-01-16T10:19:29;93563.97;;;6.02;97.74
7918;BME280;4004;42.624;23.386;2023-01-16T10:22:20;93546.88;;;6.03;97.71
7918;BME280;4004;42.624;23.386;2023-01-16T10:24:58;93543.78;;;6.17;96.14
7918;BME280;4004;42.624;23.386;2023-01-16T10:27:39;93536.38;;;6.10;95.15
7918;BME280;4004;42.624;23.386;2023-01-16T10:30:13;93528.69;;;6.09;94.82
7918;BME280;4004;42.624;23.386;2023-01-16T10:32:46;93525.56;;;6.19;94.75
7918;BME280;4004;42.624;23.386;2023-01-16T10:35:20;93512.38;;;6.26;93.89
7918;BME280;4004;42.624;23.386;2023-01-16T10:37:49;93499.31;;;6.37;93.17
7918;BME280;4004;42.624;23.386;2023-01-16T10:40:18;93516.34;;;6.32;93.08
7918;BME280;4004;42.624;23.386;2023-01-16T10:42:49;93508.09;;;6.37;93.45
7918;BME280;4004;42.624;23.386;2023-01-16T10:45:36;93491.56;;;6.48;93.28
7918;BME280;4004;42.624;23.386;2023-01-16T10:48:24;93492.50;;;6.55;93.42
7918;BME280;4004;42.624;23.386;2023-01-16T10:51:10;93500.00;;;6.50;93.73
7918;BME280;4004;42.624;23.386;2023-01-16T10:53:37;93487.34;;;6.47;93.01
7918;BME280;4004;42.624;23.386;2023-01-16T10:56:05;93473.97;;;6.47;92.72
7918;BME280;4004;42.624;23.386;2023-01-16T10:58:34;93480.28;;;6.38;92.82
7918;BME280;4004;42.624;23.386;2023-01-16T11:01:03;93473.75;;;6.36;93.01
7918;BME280;4004;42.624;23.386;2023-01-16T11:03:37;93466.75;;;6.31;93.45
7918;BME280;4004;42.624;23.386;2023-01-16T11:06:09;93453.75;;;6.30;93.05
7918;BME280;4004;42.624;23.386;2023-01-16T11:08:36;93444.28;;;6.32;93.43
7918;BME280;4004;42.624;23.386;2023-01-16T11:11:04;93435.25;;;6.37;93.40
7918;BME280;4004;42.624;23.386;2023-01-16T11:13:51;93420.50;;;6.43;92.90
7918;BME280;4004;42.624;23.386;2023-01-16T11:16:35;93431.34;;;6.50;92.59
7918;BME280;4004;42.624;23.386;2023-01-16T11:19:23;93445.22;;;6.56;92.71
7918;BME280;4004;42.624;23.386;2023-01-16T11:21:54;93425.75;;;6.55;91.90
7918;BME280;4004;42.624;23.386;2023-01-16T11:24:24;93416.03;;;6.31;92.55
7918;BME280;4004;42.624;23.386;2023-01-16T11:26:57;93424.50;;;5.89;95.98
7918;BME280;4004;42.624;23.386;2023-01-16T11:29:26;93421.41;;;5.87;96.43
7918;BME280;4004;42.624;23.386;2023-01-16T11:31:58;93420.16;;;5.97;97.00
7918;BME280;4004;42.624;23.386;2023-01-16T11:34:29;93422.56;;;6.02;97.05
7918;BME280;4004;42.624;23.386;2023-01-16T11:36:58;93408.06;;;5.87;98.17
7918;BME280;4004;42.624;23.386;2023-01-16T11:39:28;93411.72;;;5.95;98.09
7918;BME280;4004;42.624;23.386;2023-01-16T11:41:57;93416.56;;;5.77;99.65
7918;BME280;4004;42.624;23.386;2023-01-16T11:44:27;93421.19;;;5.80;100.00
7918;BME280;4004;42.624;23.386;2023-01-16T11:47:16;93404.69;;;5.46;100.00
7918;BME280;4004;42.624;23.386;2023-01-16T11:49:46;93391.56;;;5.53;100.00
7918;BME280;4004;42.624;23.386;2023-01-16T11:52:14;93372.59;;;5.71;100.00
7918;BME280;4004;42.624;23.386;2023-01-16T11:54:52;93397.72;;;5.86;100.00
7918;BME280;4004;42.624;23.386;2023-01-16T11:57:37;93386.28;;;5.85;100.00
7918;BME280;4004;42.624;23.386;2023-01-16T12:00:28;93371.19;;;5.61;100.00
7918;BME280;4004;42.624;23.386;2023-01-16T12:03:18;93381.44;;;5.59;100.00
7918;BME280;4004;42.624;23.386;2023-01-16T12:06:00;93360.16;;;5.47;100.00
7918;BME280;4004;42.624;23.386;2023-01-16T12:08:58;93349.06;;;5.45;100.00
7918;BME280;4004;42.624;23.386;2023-01-16T12:11:48;93378.72;;;5.43;100.00
7918;BME280;4004;42.624;23.386;2023-01-16T12:14:23;93370.19;;;5.66;100.00
7918;BME280;4004;42.624;23.386;2023-01-16T12:17:02;93355.78;;;5.54;100.00
7918;BME280;4004;42.624;23.386;2023-01-16T12:19:54;93351.78;;;5.76;100.00
7918;BME280;4004;42.624;23.386;2023-01-16T12:22:37;93320.38;;;5.86;100.00
7918;BME280;4004;42.624;23.386;2023-01-16T12:25:23;93340.16;;;5.85;100.00
7918;BME280;4004;42.624;23.386;2023-01-16T12:27:55;93331.91;;;5.90;100.00
7918;BME280;4004;42.624;23.386;2023-01-16T12:30:29;93332.84;;;5.81;100.00
7918;BME280;4004;42.624;23.386;2023-01-16T12:33:04;93316.34;;;5.76;98.87
7918;BME280;4004;42.624;23.386;2023-01-16T12:35:47;93309.19;;;5.80;98.85
7918;BME280;4004;42.624;23.386;2023-01-16T12:38:18;93304.81;;;5.88;97.98
7918;BME280;4004;42.624;23.386;2023-01-16T12:41:06;93308.56;;;5.87;96.79
7918;BME280;4004;42.624;23.386;2023-01-16T12:46:59;93309.34;;;5.71;98.29
7918;BME280;4004;42.624;23.386;2023-01-16T12:49:39;93295.94;;;5.68;98.49
7918;BME280;4004;42.624;23.386;2023-01-16T12:52:26;93293.28;;;5.52;99.28
7918;BME280;4004;42.624;23.386;2023-01-16T12:55:14;93310.81;;;5.53;98.95
7918;BME280;4004;42.624;23.386;2023-01-16T12:57:56;93295.84;;;5.64;98.79
7918;BME280;4004;42.624;23.386;2023-01-16T13:00:30;93294.16;;;5.72;98.76
7918;BME280;4004;42.624;23.386;2023-01-16T13:03:03;93288.72;;;5.84;98.91
7918;BME280;4004;42.624;23.386;2023-01-16T13:05:36;93285.59;;;5.82;98.99
7918;BME280;4004;42.624;23.386;2023-01-16T13:08:10;93242.88;;;5.63;98.21
7918;BME280;4004;42.624;23.386;2023-01-16T13:10:44;93272.69;;;5.84;98.08
7918;BME280;4004;42.624;23.386;2023-01-16T13:13:35;93255.78;;;5.76;99.25
7918;BME280;4004;42.624;23.386;2023-01-16T13:16:05;93257.47;;;5.85;99.32
7918;BME280;4004;42.624;23.386;2023-01-16T13:18:37;93270.41;;;5.82;99.88
7918;BME280;4004;42.624;23.386;2023-01-16T13:21:09;93235.63;;;5.79;100.00
7918;BME280;4004;42.624;23.386;2023-01-16T13:23:43;93239.94;;;5.84;100.00
7918;BME280;4004;42.624;23.386;2023-01-16T13:26:16;93251.38;;;5.84;100.00
7918;BME280;4004;42.624;23.386;2023-01-16T13:28:49;93245.00;;;5.89;100.00
7918;BME280;4004;42.624;23.386;2023-01-16T13:31:26;93227.19;;;5.77;100.00
7918;BME280;4004;42.624;23.386;2023-01-16T13:33:59;93224.22;;;5.63;100.00
7918;BME280;4004;42.624;23.386;2023-01-16T13:36:52;93222.31;;;5.63;100.00
7918;BME280;4004;42.624;23.386;2023-01-16T13:39:43;93210.94;;;5.66;100.00
7918;BME280;4004;42.624;23.386;2023-01-16T13:42:14;93208.56;;;5.61;100.00
7918;BME280;4004;42.624;23.386;2023-01-16T13:44:44;93226.09;;;5.62;100.00
7918;BME280;4004;42.624;23.386;2023-01-16T13:47:36;93226.09;;;5.62;100.00
7918;BME280;4004;42.624;23.386;2023-01-16T13:50:08;93217.41;;;5.65;100.00